Strona główna
METAR-TAF:

METAR-TAF

Lotnisko :

Port lotniczy Larnaka

Larnaka, Cypr

Szerokość geograficzna: 34-53N, Długość geograficzna: 033-38E, wysokość: 2 m

Aktualna obserwacja pogody

Raport powstał 17 minut temu, godzina 03:30 UTC
Wiatr 3 kt od północ, zmienny między północno-północny zachód i północny wschód
Temperatura 23°C
Wilgotność 100%
Ciśnienie 1008 hPa
Widzialność 10 km lub więcej
Brak chmur poniżej 1500 m i brak chmur cumulonimbus

METAR: LCLK 250330Z 01003KT 330V040 CAVOK 23/23 Q1008 NOSIG

czas: 06:47 (03:47 UTC)

Prognoza

Raport powstał 4 godziny i 17 minut temu, godzina 23:30 UTC
Prognoza ważna od 25 godzina 00 UTC do 25 godzina 24 UTC
Wiatr 3 kt z kierunków zmiennych
Stopniowe zmiany
od 25 godzina 07 UTC do 25 godzina 11 UTC
Wiatr 18 kt od południowo-południowy zachód
Stopniowe zmiany
od 25 godzina 16 UTC do 25 godzina 19 UTC
Wiatr 6 kt od zachodnio-południowy zachód

TAF: LCLK 242330Z 2500/2524 VRB03KT BECMG 2507/2511 21018KT BECMG 2516/2519 24006KT

Obserwacja i prognoza pogody dla ponad 4000 lotnisk (raport METAR i TAF).

Dostępne stacje oznaczono żółtymi i czerwonymi punktami na mapie.

Najedź kursorem aby zobaczyć nazwę stacji.

Kliknij aby zobaczyć obserwacje i prognozy pogody.

Aby zmienić mapę: kliknij na zielony przycisk z czarnym krzyżykiem, aby powiększyć; na zielony przycisk z myślnikiem, aby pomniejszyć; na zielone strzałki, aby przejść do map sąsiednich.


METAR-TAF: